createdAt,value
2023-03-31T00:02:13.382Z,8.46
2023-03-31T00:04:46.225Z,8.49
2023-03-31T00:07:16.608Z,8.51
2023-03-31T00:09:46.227Z,8.49
2023-03-31T00:12:15.498Z,8.45
2023-03-31T00:14:42.996Z,8.51
2023-03-31T00:17:09.955Z,8.58
2023-03-31T00:19:36.773Z,8.60
2023-03-31T00:22:05.297Z,8.58
2023-03-31T00:24:33.042Z,8.67
2023-03-31T00:27:04.386Z,8.59
2023-03-31T00:29:31.490Z,8.67
2023-03-31T00:31:59.842Z,8.72
2023-03-31T00:34:27.102Z,8.83
2023-03-31T00:36:56.580Z,8.86
2023-03-31T00:39:24.727Z,8.74
2023-03-31T00:41:51.585Z,8.83
2023-03-31T00:44:24.626Z,8.86
2023-03-31T00:46:55.132Z,8.83
2023-03-31T00:49:27.184Z,8.90
2023-03-31T00:51:55.563Z,8.82
2023-03-31T00:54:23.568Z,8.77
2023-03-31T00:56:53.281Z,8.85
2023-03-31T00:59:20.751Z,8.76
2023-03-31T01:01:48.215Z,8.85
2023-03-31T01:04:16.403Z,8.81
2023-03-31T01:06:51.942Z,8.87
2023-03-31T01:09:20.241Z,8.87
2023-03-31T01:11:48.104Z,9.00
2023-03-31T01:14:14.881Z,8.94
2023-03-31T01:16:41.757Z,8.90
2023-03-31T01:19:17.461Z,8.91
2023-03-31T01:22:16.890Z,9.00
2023-03-31T01:25:07.441Z,8.88
2023-03-31T01:27:58.582Z,8.73
2023-03-31T01:30:29.364Z,8.74
2023-03-31T01:33:15.605Z,8.69
2023-03-31T01:36:00.575Z,8.71
2023-03-31T01:39:01.191Z,8.69
2023-03-31T01:41:45.228Z,8.65
2023-03-31T01:44:20.683Z,8.60
2023-03-31T01:46:56.018Z,8.66
2023-03-31T01:49:34.743Z,8.67
2023-03-31T01:52:17.291Z,8.60
2023-03-31T01:54:50.746Z,8.61
2023-03-31T01:57:22.774Z,8.59
2023-03-31T02:00:04.650Z,8.54
2023-03-31T02:02:35.130Z,8.50
2023-03-31T02:05:09.976Z,8.54
2023-03-31T02:07:41.648Z,8.53
2023-03-31T02:10:10.520Z,8.59
2023-03-31T02:12:38.997Z,8.54
2023-03-31T02:15:09.490Z,8.52
2023-03-31T02:17:40.163Z,8.60
2023-03-31T02:20:11.451Z,8.59
2023-03-31T02:22:39.595Z,8.58
2023-03-31T02:25:08.598Z,8.57
2023-03-31T02:27:43.570Z,8.51
2023-03-31T02:30:11.948Z,8.57
2023-03-31T02:32:40.959Z,8.55
2023-03-31T02:35:13.040Z,8.51
2023-03-31T02:37:40.490Z,8.46
2023-03-31T02:40:10.550Z,8.42
2023-03-31T02:42:41.015Z,8.34
2023-03-31T02:45:36.904Z,8.30
2023-03-31T02:48:05.130Z,8.30
2023-03-31T02:50:36.686Z,8.31
2023-03-31T02:53:41.590Z,8.30
2023-03-31T02:56:27.256Z,8.19
2023-03-31T02:59:08.745Z,8.07
2023-03-31T03:01:41.606Z,8.01
2023-03-31T03:04:17.318Z,8.10
2023-03-31T03:07:04.593Z,8.03
2023-03-31T03:09:49.386Z,8.01
2023-03-31T03:12:32.574Z,8.06
2023-03-31T03:15:07.358Z,8.10
2023-03-31T03:17:43.686Z,8.30
2023-03-31T03:20:11.557Z,8.30
2023-03-31T03:22:39.207Z,8.30
2023-03-31T03:25:06.873Z,8.34
2023-03-31T03:27:33.513Z,8.34
2023-03-31T03:30:00.202Z,8.33
2023-03-31T03:32:26.902Z,8.28
2023-03-31T03:34:53.541Z,8.34
2023-03-31T03:37:20.355Z,8.29
2023-03-31T03:39:47.047Z,8.28
2023-03-31T03:42:13.814Z,8.25
2023-03-31T03:44:40.532Z,8.16
2023-03-31T03:47:07.443Z,8.10
2023-03-31T03:49:34.109Z,8.03
2023-03-31T03:52:00.863Z,8.00
2023-03-31T03:54:27.554Z,7.92
2023-03-31T03:56:54.232Z,7.91
2023-03-31T03:59:21.014Z,7.86
2023-03-31T04:01:47.793Z,7.73
2023-03-31T04:04:15.157Z,7.74
2023-03-31T04:06:42.090Z,7.65
2023-03-31T04:09:08.921Z,7.57
2023-03-31T04:11:35.742Z,7.55
2023-03-31T04:14:02.379Z,7.47
2023-03-31T04:16:29.281Z,7.43
2023-03-31T04:18:59.720Z,7.43
2023-03-31T04:21:26.389Z,7.48
2023-03-31T04:24:07.162Z,7.50
2023-03-31T04:26:43.984Z,7.50
2023-03-31T04:29:16.370Z,7.53
2023-03-31T04:31:43.496Z,7.56
2023-03-31T04:34:14.744Z,7.63
2023-03-31T04:36:47.273Z,7.69
2023-03-31T04:39:26.942Z,7.72
2023-03-31T04:41:56.992Z,7.74
2023-03-31T04:44:26.252Z,7.75
2023-03-31T04:46:53.804Z,7.78
2023-03-31T04:49:20.870Z,7.82
2023-03-31T04:51:47.669Z,7.92
2023-03-31T04:54:14.404Z,7.92
2023-03-31T04:56:41.088Z,7.89
2023-03-31T04:59:08.547Z,7.85
2023-03-31T05:01:36.420Z,7.81
2023-03-31T05:04:06.568Z,7.78
2023-03-31T05:06:33.801Z,7.78
2023-03-31T05:09:00.744Z,7.78
2023-03-31T05:11:29.101Z,7.82
2023-03-31T05:13:57.020Z,7.86
2023-03-31T05:16:25.710Z,7.88
2023-03-31T05:18:54.543Z,7.93
2023-03-31T05:21:22.087Z,8.07
2023-03-31T05:23:49.243Z,8.07
2023-03-31T05:26:16.075Z,8.16
2023-03-31T05:28:42.970Z,8.14
2023-03-31T05:31:11.401Z,8.22
2023-03-31T05:33:41.399Z,8.30
2023-03-31T05:36:13.790Z,8.34
2023-03-31T05:38:40.967Z,8.40
2023-03-31T05:41:09.590Z,8.41
2023-03-31T05:43:37.234Z,8.40
2023-03-31T05:46:04.484Z,8.46
2023-03-31T05:48:31.593Z,8.50
2023-03-31T05:50:59.158Z,8.50
2023-03-31T05:53:26.682Z,8.52
2023-03-31T05:56:02.042Z,8.57
2023-03-31T05:58:29.718Z,8.62
2023-03-31T06:01:07.486Z,8.65
2023-03-31T06:03:36.634Z,8.63
2023-03-31T06:06:05.471Z,8.69
2023-03-31T06:08:32.522Z,8.67
2023-03-31T06:10:59.240Z,8.69
2023-03-31T06:13:26.055Z,8.75
2023-03-31T06:15:57.414Z,8.84
2023-03-31T06:18:24.370Z,8.99
2023-03-31T06:20:51.885Z,9.19
2023-03-31T06:23:19.816Z,9.42
2023-03-31T06:25:51.421Z,9.61
2023-03-31T06:28:19.515Z,9.75
2023-03-31T06:30:46.419Z,9.78
2023-03-31T06:33:13.731Z,9.95
2023-03-31T06:35:41.592Z,10.06
2023-03-31T06:38:08.684Z,10.09
2023-03-31T06:40:35.475Z,10.25
2023-03-31T06:43:02.273Z,10.27
2023-03-31T06:45:29.030Z,10.26
2023-03-31T06:47:55.924Z,10.15
2023-03-31T06:50:22.636Z,10.22
2023-03-31T06:52:52.757Z,10.16
2023-03-31T06:55:19.527Z,10.20
2023-03-31T06:57:46.479Z,10.27
2023-03-31T07:00:13.948Z,10.26
2023-03-31T07:02:40.921Z,10.37
2023-03-31T07:05:07.962Z,10.47
2023-03-31T07:07:34.907Z,10.50
2023-03-31T07:10:01.690Z,10.65
2023-03-31T07:12:28.703Z,10.65
2023-03-31T07:14:55.625Z,10.81
2023-03-31T07:17:25.524Z,10.84
2023-03-31T07:19:52.245Z,10.98
2023-03-31T07:22:18.943Z,10.99
2023-03-31T07:24:45.753Z,11.01
2023-03-31T07:27:12.478Z,11.20
2023-03-31T07:29:39.288Z,11.52
2023-03-31T07:32:06.030Z,11.81
2023-03-31T07:34:34.418Z,12.09
2023-03-31T07:37:02.201Z,12.23
2023-03-31T07:39:29.012Z,12.52
2023-03-31T07:41:56.153Z,12.64
2023-03-31T07:44:23.485Z,12.76
2023-03-31T07:46:50.362Z,12.98
2023-03-31T07:49:17.150Z,13.08
2023-03-31T07:51:43.964Z,13.19
2023-03-31T07:54:10.758Z,13.20
2023-03-31T07:56:37.796Z,13.18
2023-03-31T07:59:05.092Z,13.23
2023-03-31T08:01:31.819Z,13.28
2023-03-31T08:03:59.310Z,13.31
2023-03-31T08:06:26.938Z,13.29
2023-03-31T08:08:53.885Z,13.31
2023-03-31T08:11:21.328Z,13.44
2023-03-31T08:13:48.501Z,13.42
2023-03-31T08:16:15.237Z,13.52
2023-03-31T08:18:41.988Z,13.52
2023-03-31T08:21:09.931Z,13.64
2023-03-31T08:23:37.038Z,13.75
2023-03-31T08:26:10.964Z,13.89
2023-03-31T08:28:37.717Z,13.96
2023-03-31T08:31:05.922Z,14.05
2023-03-31T08:33:32.851Z,14.17
2023-03-31T08:36:09.074Z,14.21
2023-03-31T08:38:42.995Z,14.18
2023-03-31T08:41:34.176Z,14.17
2023-03-31T08:44:05.169Z,14.06
2023-03-31T08:46:33.641Z,13.94
2023-03-31T08:49:01.288Z,13.80
2023-03-31T08:51:30.842Z,13.69
2023-03-31T08:54:19.859Z,13.50
2023-03-31T08:56:48.726Z,13.47
2023-03-31T08:59:29.051Z,13.42
2023-03-31T09:02:21.138Z,13.41
2023-03-31T09:04:56.877Z,13.50
2023-03-31T09:07:27.120Z,13.47
2023-03-31T09:10:12.614Z,13.49
2023-03-31T09:13:02.448Z,13.47
2023-03-31T09:15:34.828Z,13.42
2023-03-31T09:18:09.260Z,13.51
2023-03-31T09:20:38.909Z,13.66
2023-03-31T09:23:16.293Z,13.64
2023-03-31T09:25:44.579Z,13.67
2023-03-31T09:28:21.153Z,13.82
2023-03-31T09:30:51.654Z,13.78
2023-03-31T09:33:28.314Z,13.87
2023-03-31T09:35:54.991Z,13.84
2023-03-31T09:38:21.940Z,13.77
2023-03-31T09:40:48.769Z,13.87
2023-03-31T09:43:26.593Z,14.12
2023-03-31T09:46:08.455Z,14.45
2023-03-31T09:48:37.856Z,14.86
2023-03-31T09:51:07.217Z,15.04
2023-03-31T09:53:53.855Z,15.20
2023-03-31T09:56:53.975Z,15.50
2023-03-31T09:59:23.416Z,15.56
2023-03-31T10:01:52.647Z,15.41
2023-03-31T10:04:23.855Z,15.28
2023-03-31T10:06:52.930Z,15.19
2023-03-31T10:09:23.226Z,15.16
2023-03-31T10:12:03.416Z,15.17
2023-03-31T10:14:50.055Z,15.15
2023-03-31T10:17:19.032Z,15.06
2023-03-31T10:19:58.036Z,15.14
2023-03-31T10:22:35.587Z,15.16
2023-03-31T10:25:28.831Z,15.31
2023-03-31T10:27:56.822Z,15.35
2023-03-31T10:30:26.608Z,14.96
2023-03-31T10:32:54.662Z,15.05
2023-03-31T10:35:33.750Z,15.11
2023-03-31T10:38:06.885Z,15.17
2023-03-31T10:40:34.224Z,15.02
2023-03-31T10:43:10.510Z,15.04
2023-03-31T10:45:41.988Z,15.07
2023-03-31T10:48:26.290Z,15.10
2023-03-31T10:50:53.971Z,15.21
2023-03-31T10:53:21.107Z,15.24
2023-03-31T10:56:15.452Z,15.23
2023-03-31T10:59:06.574Z,15.27
2023-03-31T11:01:43.169Z,15.26
2023-03-31T11:04:39.489Z,15.30
2023-03-31T11:07:13.829Z,15.54
2023-03-31T11:10:00.751Z,15.69
2023-03-31T11:12:52.259Z,15.71
2023-03-31T11:16:00.916Z,15.78
2023-03-31T11:18:36.728Z,15.51
2023-03-31T11:21:12.515Z,15.48
2023-03-31T11:24:16.978Z,15.35
2023-03-31T11:26:54.245Z,15.22
2023-03-31T11:29:26.778Z,15.14
2023-03-31T11:32:28.315Z,14.99
2023-03-31T11:35:35.617Z,14.85
2023-03-31T11:38:24.699Z,14.67
2023-03-31T11:41:04.870Z,14.56
2023-03-31T11:43:44.293Z,14.46
2023-03-31T11:46:30.483Z,14.28
2023-03-31T11:49:03.772Z,14.17
2023-03-31T11:52:06.918Z,13.98
2023-03-31T11:54:38.109Z,13.87
2023-03-31T11:57:18.176Z,13.84
2023-03-31T11:59:56.175Z,13.72
2023-03-31T12:02:36.669Z,13.61
2023-03-31T12:05:04.240Z,13.45
2023-03-31T12:07:45.780Z,13.50
2023-03-31T12:10:22.792Z,13.44
2023-03-31T12:13:14.797Z,13.53
2023-03-31T12:15:43.985Z,13.43
2023-03-31T12:18:16.950Z,13.20
2023-03-31T12:20:51.214Z,12.99
2023-03-31T12:23:20.764Z,12.78
2023-03-31T12:26:26.057Z,12.59
2023-03-31T12:28:57.258Z,12.44
2023-03-31T12:31:25.039Z,12.41
2023-03-31T12:34:03.543Z,12.42
2023-03-31T12:36:55.469Z,12.36
2023-03-31T12:39:53.132Z,12.36
2023-03-31T12:42:51.515Z,12.55
2023-03-31T12:45:21.162Z,12.53
2023-03-31T12:48:10.010Z,12.58
2023-03-31T12:51:01.741Z,12.71
2023-03-31T12:53:52.625Z,12.71
2023-03-31T12:56:19.353Z,12.92
2023-03-31T12:58:46.726Z,12.87
2023-03-31T13:01:23.803Z,12.85
2023-03-31T13:03:54.549Z,12.99
2023-03-31T13:06:27.260Z,13.11
2023-03-31T13:09:08.538Z,13.18
2023-03-31T13:11:39.040Z,13.40
2023-03-31T13:14:19.961Z,13.44
2023-03-31T13:16:47.318Z,13.38
2023-03-31T13:19:34.995Z,13.47
2023-03-31T13:22:04.157Z,13.37
2023-03-31T13:24:32.068Z,13.47
2023-03-31T13:27:19.754Z,13.48
2023-03-31T13:29:46.791Z,13.60
2023-03-31T13:32:24.838Z,13.38
2023-03-31T13:35:00.119Z,13.49
2023-03-31T13:37:53.571Z,13.68
2023-03-31T13:41:01.696Z,13.72
2023-03-31T13:43:56.706Z,13.78
2023-03-31T13:47:11.331Z,13.83
2023-03-31T13:49:51.276Z,13.64
2023-03-31T13:52:29.846Z,13.56
2023-03-31T13:55:02.686Z,13.55
2023-03-31T13:57:47.507Z,13.65
2023-03-31T14:00:32.844Z,13.67
2023-03-31T14:03:19.653Z,13.57
2023-03-31T14:05:51.153Z,13.56
2023-03-31T14:08:21.528Z,13.35
2023-03-31T14:10:48.235Z,13.09
2023-03-31T14:13:18.774Z,12.75
2023-03-31T14:15:52.024Z,12.47
2023-03-31T14:18:26.484Z,12.25
2023-03-31T14:21:27.202Z,12.15
2023-03-31T14:24:13.089Z,12.00
2023-03-31T14:26:58.601Z,11.87
2023-03-31T14:29:37.116Z,11.76
2023-03-31T14:32:14.581Z,11.68
2023-03-31T14:34:57.812Z,11.60
2023-03-31T14:37:24.985Z,11.57
2023-03-31T14:39:54.743Z,11.53
2023-03-31T14:42:28.839Z,11.67
2023-03-31T14:44:57.330Z,11.49
2023-03-31T14:47:26.406Z,11.38
2023-03-31T14:50:13.677Z,11.33
2023-03-31T14:52:40.972Z,11.24
2023-03-31T14:55:15.543Z,11.22
2023-03-31T14:57:43.630Z,11.18
2023-03-31T15:00:14.840Z,11.17
2023-03-31T15:02:43.573Z,11.16
2023-03-31T15:05:28.234Z,11.13
2023-03-31T15:08:06.445Z,11.12
2023-03-31T15:10:39.591Z,11.10
2023-03-31T15:13:10.952Z,11.07
2023-03-31T15:15:37.657Z,11.08
2023-03-31T15:18:04.656Z,11.09
2023-03-31T15:20:36.191Z,11.05
2023-03-31T15:23:05.597Z,11.01
2023-03-31T15:25:34.688Z,11.02
2023-03-31T15:28:06.807Z,11.09
2023-03-31T15:30:35.610Z,11.10
2023-03-31T15:33:15.915Z,11.11
2023-03-31T15:35:45.638Z,11.00
2023-03-31T15:38:16.478Z,11.12
2023-03-31T15:40:44.025Z,11.18
2023-03-31T15:43:38.864Z,11.00
2023-03-31T15:46:25.614Z,11.03
2023-03-31T15:48:56.059Z,10.98
2023-03-31T15:51:31.238Z,10.95
2023-03-31T15:53:57.933Z,10.90
2023-03-31T15:56:36.333Z,10.97
2023-03-31T15:59:07.103Z,10.94
2023-03-31T16:01:38.822Z,10.92
2023-03-31T16:04:10.586Z,10.89
2023-03-31T16:06:50.181Z,10.81
2023-03-31T16:09:31.279Z,10.85
2023-03-31T16:12:01.539Z,10.81
2023-03-31T16:14:33.282Z,10.71
2023-03-31T16:17:04.512Z,10.69
2023-03-31T16:19:39.341Z,10.77
2023-03-31T16:22:06.253Z,10.71
2023-03-31T16:24:34.608Z,10.63
2023-03-31T16:27:09.502Z,10.55
2023-03-31T16:29:37.582Z,10.48
2023-03-31T16:32:23.692Z,10.48
2023-03-31T16:34:55.831Z,10.54
2023-03-31T16:37:23.172Z,10.54
2023-03-31T16:39:49.887Z,10.49
2023-03-31T16:42:19.716Z,10.50
2023-03-31T16:44:52.857Z,10.54
2023-03-31T16:47:35.114Z,10.46
2023-03-31T16:50:07.295Z,10.34
2023-03-31T16:52:34.767Z,10.35
2023-03-31T16:55:01.452Z,10.30
2023-03-31T16:57:28.242Z,10.25
2023-03-31T16:59:57.357Z,10.21
2023-03-31T17:02:30.562Z,10.19
2023-03-31T17:05:06.215Z,10.22
2023-03-31T17:07:39.516Z,10.23
2023-03-31T17:10:09.467Z,10.13
2023-03-31T17:12:36.186Z,10.18
2023-03-31T17:15:02.764Z,10.13
2023-03-31T17:17:29.952Z,10.12
2023-03-31T17:19:57.491Z,10.03
2023-03-31T17:22:24.126Z,9.99
2023-03-31T17:24:56.930Z,10.03
2023-03-31T17:27:23.770Z,9.96
2023-03-31T17:29:50.504Z,9.94
2023-03-31T17:32:17.812Z,9.91
2023-03-31T17:34:44.900Z,9.87
2023-03-31T17:37:12.431Z,9.89
2023-03-31T17:39:39.091Z,9.90
2023-03-31T17:42:06.055Z,9.95
2023-03-31T17:44:32.781Z,9.99
2023-03-31T17:46:59.523Z,10.03
2023-03-31T17:49:26.180Z,10.00
2023-03-31T17:51:53.158Z,10.01
2023-03-31T17:54:19.789Z,10.01
2023-03-31T17:56:49.449Z,9.83
2023-03-31T17:59:17.164Z,9.75
2023-03-31T18:01:44.605Z,9.78
2023-03-31T18:04:11.444Z,9.67
2023-03-31T18:06:38.702Z,9.64
2023-03-31T18:09:06.192Z,9.69
2023-03-31T18:11:32.882Z,9.62
2023-03-31T18:14:01.975Z,9.62
2023-03-31T18:16:30.593Z,9.58
2023-03-31T18:18:58.045Z,9.50
2023-03-31T18:21:24.715Z,9.48
2023-03-31T18:23:57.569Z,9.41
2023-03-31T18:26:26.079Z,9.37
2023-03-31T18:28:53.084Z,9.43
2023-03-31T18:31:22.017Z,9.45
2023-03-31T18:33:49.252Z,9.41
2023-03-31T18:36:20.423Z,9.36
2023-03-31T18:38:48.305Z,9.35
2023-03-31T18:41:15.770Z,9.28
2023-03-31T18:43:43.609Z,9.31
2023-03-31T18:46:10.867Z,9.33
2023-03-31T18:48:38.505Z,9.30
2023-03-31T18:51:05.289Z,9.24
2023-03-31T18:53:31.902Z,9.29
2023-03-31T18:55:59.155Z,9.22
2023-03-31T18:58:27.892Z,9.31
2023-03-31T19:00:54.692Z,9.30
2023-03-31T19:03:21.800Z,9.23
2023-03-31T19:05:48.830Z,9.20
2023-03-31T19:08:15.638Z,9.17
2023-03-31T19:10:42.575Z,9.15
2023-03-31T19:13:13.666Z,9.14
2023-03-31T19:15:40.586Z,9.13
2023-03-31T19:18:07.244Z,9.18
2023-03-31T19:20:33.978Z,9.12
2023-03-31T19:23:01.417Z,9.15
2023-03-31T19:25:28.230Z,9.09
2023-03-31T19:27:55.549Z,9.07
2023-03-31T19:30:24.137Z,9.13
2023-03-31T19:32:51.012Z,9.05
2023-03-31T19:35:21.078Z,9.06
2023-03-31T19:37:48.628Z,9.01
2023-03-31T19:40:15.429Z,9.01
2023-03-31T19:42:42.364Z,9.00
2023-03-31T19:45:09.531Z,8.99
2023-03-31T19:47:36.527Z,8.98
2023-03-31T19:50:03.920Z,9.01
2023-03-31T19:52:30.729Z,8.96
2023-03-31T19:54:57.423Z,8.95
2023-03-31T19:57:24.084Z,8.97
2023-03-31T19:59:53.431Z,8.96
2023-03-31T20:02:20.378Z,8.94
2023-03-31T20:04:47.321Z,8.92
2023-03-31T20:07:14.112Z,8.92
2023-03-31T20:09:42.002Z,8.91
2023-03-31T20:12:08.624Z,8.90
2023-03-31T20:14:35.293Z,8.88
2023-03-31T20:17:03.301Z,8.95
2023-03-31T20:19:29.969Z,8.90
2023-03-31T20:21:58.020Z,8.89
2023-03-31T20:24:24.845Z,8.86
2023-03-31T20:26:53.208Z,8.82
2023-03-31T20:29:20.307Z,8.81
2023-03-31T20:31:47.365Z,8.81
2023-03-31T20:34:16.751Z,8.79
2023-03-31T20:36:46.397Z,8.79
2023-03-31T20:39:16.583Z,8.88
2023-03-31T20:41:43.439Z,8.81
2023-03-31T20:44:12.754Z,8.91
2023-03-31T20:46:41.887Z,8.91
2023-03-31T20:49:08.607Z,8.80
2023-03-31T20:51:40.304Z,8.79
2023-03-31T20:54:07.892Z,8.82
2023-03-31T20:56:39.639Z,8.80
2023-03-31T20:59:08.242Z,8.73
2023-03-31T21:01:35.967Z,8.70
2023-03-31T21:04:03.764Z,8.69
2023-03-31T21:06:41.103Z,8.69
2023-03-31T21:09:08.194Z,8.68
2023-03-31T21:11:34.984Z,8.70
2023-03-31T21:14:01.796Z,8.67
2023-03-31T21:16:28.531Z,8.68
2023-03-31T21:18:55.601Z,8.80
2023-03-31T21:21:24.563Z,8.73
2023-03-31T21:23:54.893Z,8.68
2023-03-31T21:26:22.155Z,8.70
2023-03-31T21:28:54.016Z,8.66
2023-03-31T21:31:25.608Z,8.69
2023-03-31T21:33:53.162Z,8.71
2023-03-31T21:36:24.244Z,8.65
2023-03-31T21:38:54.430Z,8.61
2023-03-31T21:41:24.179Z,8.56
2023-03-31T21:43:51.319Z,8.55
2023-03-31T21:46:20.084Z,8.54
2023-03-31T21:48:48.280Z,8.54
2023-03-31T21:51:16.019Z,8.56
2023-03-31T21:53:45.050Z,8.53
2023-03-31T21:56:11.693Z,8.52
2023-03-31T21:58:38.689Z,8.49
2023-03-31T22:01:06.368Z,8.48
2023-03-31T22:03:34.583Z,8.49
2023-03-31T22:06:03.123Z,8.47
2023-03-31T22:08:31.582Z,8.47
2023-03-31T22:11:00.109Z,8.42
2023-03-31T22:13:29.149Z,8.42
2023-03-31T22:15:56.353Z,8.44
2023-03-31T22:18:26.386Z,8.45
2023-03-31T22:20:52.992Z,8.41
2023-03-31T22:23:22.642Z,8.41
2023-03-31T22:25:49.390Z,8.42
2023-03-31T22:28:18.685Z,8.42
2023-03-31T22:30:45.406Z,8.43
2023-03-31T22:33:12.136Z,8.40
2023-03-31T22:35:40.289Z,8.37
2023-03-31T22:38:08.544Z,8.36
2023-03-31T22:40:35.874Z,8.34
2023-03-31T22:43:06.021Z,8.37
2023-03-31T22:45:32.888Z,8.29
2023-03-31T22:47:59.765Z,8.29
2023-03-31T22:50:27.363Z,8.28
2023-03-31T22:52:54.265Z,8.28
2023-03-31T22:55:22.037Z,8.28
2023-03-31T22:57:48.895Z,8.26
2023-03-31T23:00:15.793Z,8.25
2023-03-31T23:02:42.462Z,8.26
2023-03-31T23:05:09.514Z,8.24
2023-03-31T23:07:36.358Z,8.24
2023-03-31T23:10:03.354Z,8.28
2023-03-31T23:12:30.093Z,8.25
2023-03-31T23:14:56.687Z,8.24
2023-03-31T23:17:23.447Z,8.26
2023-03-31T23:19:50.551Z,8.22
2023-03-31T23:22:17.209Z,8.20
2023-03-31T23:24:43.834Z,8.21
2023-03-31T23:27:10.762Z,8.21
2023-03-31T23:29:39.132Z,8.16
2023-03-31T23:32:06.117Z,8.18
2023-03-31T23:34:32.829Z,8.16
2023-03-31T23:36:59.755Z,8.15
2023-03-31T23:39:26.364Z,8.14
2023-03-31T23:41:57.259Z,8.11
2023-03-31T23:44:23.941Z,8.08
2023-03-31T23:46:50.635Z,8.08
2023-03-31T23:49:17.383Z,8.08
2023-03-31T23:51:44.164Z,8.04
2023-03-31T23:54:10.808Z,8.04
2023-03-31T23:56:37.474Z,8.07
2023-03-31T23:59:04.340Z,8.04
